createdAt,value
2018-07-13T00:00:49.659Z,13.36
2018-07-13T00:01:49.608Z,13.43
2018-07-13T00:02:49.552Z,13.30
2018-07-13T00:03:49.528Z,13.36
2018-07-13T00:04:49.445Z,13.43
2018-07-13T00:05:49.392Z,13.43
2018-07-13T00:06:49.341Z,13.54
2018-07-13T00:07:49.288Z,13.58
2018-07-13T00:08:49.234Z,13.47
2018-07-13T00:09:49.182Z,13.71
2018-07-13T00:10:49.131Z,13.62
2018-07-13T00:11:49.077Z,13.71
2018-07-13T00:12:49.023Z,13.83
2018-07-13T00:13:48.969Z,13.80
2018-07-13T00:14:48.915Z,13.73
2018-07-13T00:15:48.877Z,13.59
2018-07-13T00:16:48.813Z,13.51
2018-07-13T00:17:48.758Z,13.36
2018-07-13T00:18:48.704Z,13.29
2018-07-13T00:19:48.652Z,13.20
2018-07-13T00:20:48.598Z,13.17
2018-07-13T00:21:48.545Z,13.11
2018-07-13T00:22:48.492Z,13.21
2018-07-13T00:23:48.440Z,13.14
2018-07-13T00:24:48.385Z,13.15
2018-07-13T00:25:48.332Z,13.12
2018-07-13T00:26:48.277Z,13.15
2018-07-13T00:27:48.228Z,13.07
2018-07-13T00:28:48.172Z,13.09
2018-07-13T00:29:48.118Z,13.20
2018-07-13T00:30:48.065Z,13.15
2018-07-13T00:31:48.012Z,13.09
2018-07-13T00:32:47.959Z,13.09
2018-07-13T00:33:47.905Z,13.15
2018-07-13T00:34:47.852Z,13.21
2018-07-13T00:35:47.799Z,13.14
2018-07-13T00:36:47.746Z,13.21
2018-07-13T00:37:47.692Z,13.33
2018-07-13T00:38:47.641Z,13.25
2018-07-13T00:39:47.587Z,13.37
2018-07-13T00:40:47.534Z,13.41
2018-07-13T00:41:47.477Z,13.29
2018-07-13T00:42:47.426Z,13.30
2018-07-13T00:43:47.372Z,13.27
2018-07-13T00:44:47.319Z,13.33
2018-07-13T00:45:47.265Z,13.30
2018-07-13T00:46:47.212Z,13.29
2018-07-13T00:47:47.160Z,13.32
2018-07-13T00:48:47.107Z,13.36
2018-07-13T00:49:47.053Z,13.25
2018-07-13T00:50:47.001Z,13.36
2018-07-13T00:51:46.946Z,13.36
2018-07-13T00:52:46.893Z,13.38
2018-07-13T00:53:46.839Z,13.37
2018-07-13T00:54:46.787Z,13.40
2018-07-13T00:55:46.739Z,13.38
2018-07-13T00:56:46.682Z,13.40
2018-07-13T00:57:46.634Z,13.37
2018-07-13T00:58:46.573Z,13.41
2018-07-13T00:59:46.521Z,13.43
2018-07-13T01:00:46.468Z,13.43
2018-07-13T01:01:46.412Z,13.37
2018-07-13T01:02:46.364Z,13.51
2018-07-13T01:03:46.308Z,13.49
2018-07-13T01:04:46.253Z,13.62
2018-07-13T01:05:46.202Z,13.59
2018-07-13T01:06:46.148Z,13.54
2018-07-13T01:07:46.097Z,13.56
2018-07-13T01:08:46.043Z,13.56
2018-07-13T01:09:45.988Z,13.49
2018-07-13T01:10:45.935Z,13.55
2018-07-13T01:11:45.882Z,13.55
2018-07-13T01:12:45.830Z,13.52
2018-07-13T01:13:45.777Z,13.58
2018-07-13T01:14:45.725Z,13.52
2018-07-13T01:15:45.673Z,13.43
2018-07-13T01:16:45.618Z,13.46
2018-07-13T01:17:45.565Z,13.37
2018-07-13T01:18:45.513Z,13.46
2018-07-13T01:19:45.458Z,13.46
2018-07-13T01:20:45.407Z,13.51
2018-07-13T01:21:45.352Z,13.49
2018-07-13T01:22:45.301Z,13.44
2018-07-13T01:23:45.245Z,13.44
2018-07-13T01:24:45.192Z,13.49
2018-07-13T01:25:45.140Z,13.52
2018-07-13T01:26:45.091Z,13.44
2018-07-13T01:27:45.035Z,13.47
2018-07-13T01:28:44.981Z,13.51
2018-07-13T01:29:44.925Z,13.58
2018-07-13T01:30:44.873Z,13.52
2018-07-13T01:31:44.823Z,13.55
2018-07-13T01:32:44.769Z,13.52
2018-07-13T01:33:44.716Z,13.33
2018-07-13T01:34:44.666Z,13.37
2018-07-13T01:35:44.608Z,13.15
2018-07-13T01:36:44.558Z,13.03
2018-07-13T01:37:44.501Z,13.04
2018-07-13T01:38:44.448Z,13.02
2018-07-13T01:39:44.398Z,12.93
2018-07-13T01:40:44.342Z,12.93
2018-07-13T01:41:44.287Z,13.03
2018-07-13T01:42:44.235Z,12.92
2018-07-13T01:43:44.183Z,12.89
2018-07-13T01:44:44.130Z,12.92
2018-07-13T01:45:44.075Z,12.93
2018-07-13T01:46:44.021Z,12.92
2018-07-13T01:47:43.968Z,12.89
2018-07-13T01:48:43.919Z,12.88
2018-07-13T01:49:43.863Z,12.96
2018-07-13T01:50:43.809Z,12.95
2018-07-13T01:51:43.756Z,12.87
2018-07-13T01:52:43.704Z,12.92
2018-07-13T01:53:43.648Z,12.87
2018-07-13T01:54:43.596Z,12.88
2018-07-13T01:55:43.585Z,12.88
2018-07-13T01:56:43.490Z,12.87
2018-07-13T01:57:43.434Z,12.93
2018-07-13T01:58:43.381Z,12.92
2018-07-13T01:59:43.327Z,12.92
2018-07-13T02:00:43.278Z,12.84
2018-07-13T02:01:43.221Z,12.85
2018-07-13T02:02:43.166Z,12.75
2018-07-13T02:03:43.112Z,12.70
2018-07-13T02:04:43.059Z,12.75
2018-07-13T02:05:43.009Z,12.71
2018-07-13T02:06:42.951Z,12.62
2018-07-13T02:07:42.899Z,12.74
2018-07-13T02:08:42.844Z,12.70
2018-07-13T02:09:42.790Z,12.69
2018-07-13T02:10:42.738Z,12.74
2018-07-13T02:11:42.682Z,12.66
2018-07-13T02:12:42.629Z,12.63
2018-07-13T02:13:42.575Z,12.59
2018-07-13T02:14:42.522Z,12.56
2018-07-13T02:15:42.468Z,12.62
2018-07-13T02:16:42.415Z,12.60
2018-07-13T02:17:42.369Z,12.56
2018-07-13T02:18:42.306Z,12.62
2018-07-13T02:19:42.259Z,12.62
2018-07-13T02:20:42.199Z,12.56
2018-07-13T02:21:42.143Z,12.57
2018-07-13T02:22:42.094Z,12.62
2018-07-13T02:23:42.038Z,12.60
2018-07-13T02:24:41.989Z,12.60
2018-07-13T02:25:41.934Z,12.63
2018-07-13T02:26:41.877Z,12.52
2018-07-13T02:27:41.827Z,12.52
2018-07-13T02:28:41.769Z,12.59
2018-07-13T02:29:41.714Z,12.60
2018-07-13T02:30:41.662Z,12.57
2018-07-13T02:31:41.610Z,12.59
2018-07-13T02:32:41.553Z,12.57
2018-07-13T02:33:41.560Z,12.63
2018-07-13T02:34:41.445Z,12.57
2018-07-13T02:35:41.392Z,12.67
2018-07-13T02:36:41.354Z,12.69
2018-07-13T02:37:41.285Z,12.67
2018-07-13T02:38:41.231Z,12.75
2018-07-13T02:39:41.177Z,12.75
2018-07-13T02:40:41.122Z,12.78
2018-07-13T02:41:41.069Z,12.81
2018-07-13T02:42:41.015Z,12.82
2018-07-13T02:43:40.961Z,12.81
2018-07-13T02:44:40.908Z,12.85
2018-07-13T02:45:40.856Z,12.84
2018-07-13T02:46:40.804Z,12.88
2018-07-13T02:47:40.750Z,12.92
2018-07-13T02:48:40.695Z,12.87
2018-07-13T02:49:40.641Z,12.85
2018-07-13T02:50:40.585Z,12.82
2018-07-13T02:51:40.532Z,12.71
2018-07-13T02:52:40.484Z,12.67
2018-07-13T02:53:40.424Z,12.56
2018-07-13T02:54:40.370Z,12.49
2018-07-13T02:55:40.317Z,12.48
2018-07-13T02:56:40.264Z,12.46
2018-07-13T02:57:40.209Z,12.45
2018-07-13T02:58:40.155Z,12.37
2018-07-13T02:59:40.102Z,12.29
2018-07-13T03:00:40.048Z,12.31
2018-07-13T03:01:39.994Z,12.29
2018-07-13T03:02:39.940Z,12.29
2018-07-13T03:03:39.886Z,12.29
2018-07-13T03:04:39.832Z,12.30
2018-07-13T03:05:39.778Z,12.31
2018-07-13T03:06:39.735Z,12.31
2018-07-13T03:07:39.669Z,12.30
2018-07-13T03:08:39.615Z,12.33
2018-07-13T03:09:39.560Z,12.29
2018-07-13T03:10:39.506Z,12.30
2018-07-13T03:11:39.452Z,12.29
2018-07-13T03:12:39.399Z,12.29
2018-07-13T03:13:39.349Z,12.33
2018-07-13T03:14:39.290Z,12.30
2018-07-13T03:15:39.235Z,12.38
2018-07-13T03:16:39.184Z,12.30
2018-07-13T03:17:39.129Z,12.34
2018-07-13T03:18:39.076Z,12.26
2018-07-13T03:19:39.019Z,12.24
2018-07-13T03:20:38.966Z,12.19
2018-07-13T03:21:38.912Z,12.24
2018-07-13T03:22:38.877Z,12.19
2018-07-13T03:23:38.807Z,12.21
2018-07-13T03:24:38.749Z,12.29
2018-07-13T03:25:38.696Z,12.20
2018-07-13T03:26:38.641Z,12.29
2018-07-13T03:27:38.589Z,12.38
2018-07-13T03:28:38.534Z,12.31
2018-07-13T03:29:38.480Z,12.44
2018-07-13T03:30:38.426Z,12.45
2018-07-13T03:31:38.371Z,12.57
2018-07-13T03:32:38.318Z,12.45
2018-07-13T03:33:38.262Z,12.54
2018-07-13T03:34:38.208Z,12.59
2018-07-13T03:35:38.155Z,12.60
2018-07-13T03:36:38.101Z,12.52
2018-07-13T03:37:38.046Z,12.56
2018-07-13T03:38:37.992Z,12.59
2018-07-13T03:39:37.938Z,12.59
2018-07-13T03:40:37.888Z,12.60
2018-07-13T03:41:37.831Z,12.69
2018-07-13T03:42:37.777Z,12.62
2018-07-13T03:43:37.723Z,12.52
2018-07-13T03:44:37.670Z,12.45
2018-07-13T03:45:37.615Z,12.46
2018-07-13T03:46:37.563Z,12.44
2018-07-13T03:47:37.506Z,12.37
2018-07-13T03:48:37.454Z,12.31
2018-07-13T03:49:37.400Z,12.20
2018-07-13T03:50:37.344Z,12.05
2018-07-13T03:51:37.300Z,11.96
2018-07-13T03:52:37.235Z,12.08
2018-07-13T03:53:37.182Z,12.02
2018-07-13T03:54:37.127Z,11.96
2018-07-13T03:55:37.073Z,11.97
2018-07-13T03:56:37.019Z,11.96
2018-07-13T03:57:36.963Z,11.99
2018-07-13T03:58:36.909Z,11.99
2018-07-13T03:59:36.855Z,11.99
2018-07-13T04:00:36.878Z,11.97
2018-07-13T04:01:36.746Z,12.04
2018-07-13T04:02:36.692Z,12.05
2018-07-13T04:03:36.638Z,12.05
2018-07-13T04:04:36.583Z,12.15
2018-07-13T04:05:36.529Z,12.19
2018-07-13T04:06:36.591Z,12.13
2018-07-13T04:07:36.420Z,12.19
2018-07-13T04:08:36.367Z,12.24
2018-07-13T04:09:36.312Z,12.29
2018-07-13T04:10:36.258Z,12.27
2018-07-13T04:11:36.204Z,12.24
2018-07-13T04:12:36.149Z,12.33
2018-07-13T04:13:36.094Z,12.29
2018-07-13T04:14:36.054Z,12.39
2018-07-13T04:15:35.988Z,12.37
2018-07-13T04:16:35.934Z,12.29
2018-07-13T04:17:35.880Z,12.31
2018-07-13T04:18:35.826Z,12.46
2018-07-13T04:19:35.773Z,12.45
2018-07-13T04:20:35.719Z,12.44
2018-07-13T04:21:35.664Z,12.51
2018-07-13T04:22:35.614Z,12.56
2018-07-13T04:23:35.556Z,12.56
2018-07-13T04:24:35.503Z,12.67
2018-07-13T04:25:35.448Z,12.69
2018-07-13T04:26:35.394Z,12.62
2018-07-13T04:27:35.340Z,12.71
2018-07-13T04:28:35.287Z,12.70
2018-07-13T04:29:35.234Z,12.75
2018-07-13T04:30:35.179Z,12.79
2018-07-13T04:31:35.126Z,12.78
2018-07-13T04:32:35.072Z,12.77
2018-07-13T04:33:35.017Z,12.84
2018-07-13T04:34:34.967Z,12.71
2018-07-13T04:35:34.913Z,12.75
2018-07-13T04:36:34.857Z,12.66
2018-07-13T04:37:34.802Z,12.66
2018-07-13T04:38:34.749Z,12.56
2018-07-13T04:39:34.695Z,12.57
2018-07-13T04:40:34.641Z,12.48
2018-07-13T04:41:34.588Z,12.48
2018-07-13T04:42:34.534Z,12.48
2018-07-13T04:43:34.484Z,12.38
2018-07-13T04:44:34.428Z,12.37
2018-07-13T04:45:34.370Z,12.29
2018-07-13T04:46:34.319Z,12.31
2018-07-13T04:47:34.266Z,12.39
2018-07-13T04:48:34.285Z,12.30
2018-07-13T04:49:34.158Z,12.41
2018-07-13T04:50:34.102Z,12.37
2018-07-13T04:51:34.052Z,12.42
2018-07-13T04:52:33.994Z,12.49
2018-07-13T04:53:33.939Z,12.48
2018-07-13T04:54:33.885Z,12.60
2018-07-13T04:55:33.835Z,12.60
2018-07-13T04:56:33.778Z,12.64
2018-07-13T04:57:33.723Z,12.67
2018-07-13T04:58:33.672Z,12.64
2018-07-13T04:59:33.617Z,12.74
2018-07-13T05:00:33.605Z,12.84
2018-07-13T05:01:33.509Z,12.85
2018-07-13T05:02:33.455Z,12.87
2018-07-13T05:03:33.402Z,13.00
2018-07-13T05:04:33.350Z,13.00
2018-07-13T05:05:33.293Z,12.99
2018-07-13T05:06:33.240Z,12.97
2018-07-13T05:07:33.187Z,13.02
2018-07-13T05:08:33.132Z,12.96
2018-07-13T05:09:33.078Z,12.97
2018-07-13T05:10:33.028Z,12.99
2018-07-13T05:11:32.971Z,13.03
2018-07-13T05:12:32.917Z,13.06
2018-07-13T05:13:32.862Z,13.15
2018-07-13T05:14:32.810Z,13.17
2018-07-13T05:15:32.755Z,13.25
2018-07-13T05:16:32.705Z,13.25
2018-07-13T05:17:32.647Z,13.40
2018-07-13T05:18:32.593Z,13.46
2018-07-13T05:19:32.541Z,13.47
2018-07-13T05:20:32.486Z,13.51
2018-07-13T05:21:32.431Z,13.61
2018-07-13T05:22:32.378Z,13.62
2018-07-13T05:23:32.325Z,13.73
2018-07-13T05:24:32.271Z,13.87
2018-07-13T05:25:32.218Z,13.88
2018-07-13T05:26:32.163Z,13.96
2018-07-13T05:27:32.110Z,13.88
2018-07-13T05:28:32.057Z,14.01
2018-07-13T05:29:32.002Z,14.09
2018-07-13T05:30:31.950Z,14.10
2018-07-13T05:31:31.897Z,14.13
2018-07-13T05:32:31.848Z,14.32
2018-07-13T05:33:31.791Z,14.29
2018-07-13T05:34:31.737Z,14.35
2018-07-13T05:35:31.687Z,14.34
2018-07-13T05:36:31.631Z,14.37
2018-07-13T05:37:31.579Z,14.50
2018-07-13T05:38:31.525Z,14.53
2018-07-13T05:39:31.474Z,14.56
2018-07-13T05:40:31.421Z,14.62
2018-07-13T05:41:31.368Z,14.67
2018-07-13T05:42:31.316Z,14.78
2018-07-13T05:43:31.263Z,14.74
2018-07-13T05:44:31.209Z,14.91
2018-07-13T05:45:31.157Z,14.93
2018-07-13T05:46:31.104Z,14.94
2018-07-13T05:47:31.052Z,15.01
2018-07-13T05:48:31.002Z,15.01
2018-07-13T05:49:30.951Z,15.20
2018-07-13T05:50:30.894Z,15.24
2018-07-13T05:51:30.842Z,15.30
2018-07-13T05:52:30.794Z,15.36
2018-07-13T05:53:30.737Z,15.43
2018-07-13T05:54:30.685Z,15.51
2018-07-13T05:55:30.633Z,15.64
2018-07-13T05:56:30.582Z,15.76
2018-07-13T05:57:30.527Z,15.81
2018-07-13T05:58:30.475Z,15.89
2018-07-13T05:59:30.429Z,15.96
2018-07-13T06:00:30.373Z,15.97
2018-07-13T06:01:30.319Z,16.09
2018-07-13T06:02:30.269Z,16.06
2018-07-13T06:03:30.217Z,16.00
2018-07-13T06:04:30.165Z,16.07
2018-07-13T06:05:30.113Z,16.12
2018-07-13T06:06:30.060Z,16.15
2018-07-13T06:07:30.019Z,16.20
2018-07-13T06:08:29.958Z,16.35
2018-07-13T06:09:29.906Z,16.42
2018-07-13T06:10:29.854Z,16.50
2018-07-13T06:11:29.803Z,16.60
2018-07-13T06:12:29.751Z,16.58
2018-07-13T06:13:29.699Z,16.56
2018-07-13T06:14:29.648Z,16.71
2018-07-13T06:15:29.597Z,16.70
2018-07-13T06:16:29.546Z,16.86
2018-07-13T06:17:29.493Z,16.95
2018-07-13T06:18:29.448Z,16.90
2018-07-13T06:19:29.396Z,16.98
2018-07-13T06:20:29.342Z,17.00
2018-07-13T06:21:29.289Z,17.13
2018-07-13T06:22:29.239Z,17.17
2018-07-13T06:23:29.188Z,17.17
2018-07-13T06:24:29.137Z,17.15
2018-07-13T06:25:29.087Z,17.33
2018-07-13T06:26:29.035Z,17.36
2018-07-13T06:27:28.985Z,17.47
2018-07-13T06:28:28.935Z,17.51
2018-07-13T06:29:28.884Z,17.62
2018-07-13T06:30:28.832Z,17.70
2018-07-13T06:31:28.834Z,17.79
2018-07-13T06:32:28.731Z,17.92
2018-07-13T06:33:28.681Z,17.94
2018-07-13T06:34:28.631Z,18.13
2018-07-13T06:35:28.580Z,18.24
2018-07-13T06:36:28.532Z,18.33
2018-07-13T06:37:28.480Z,18.34
2018-07-13T06:38:28.428Z,18.40
2018-07-13T06:39:28.377Z,18.50
2018-07-13T06:40:28.328Z,18.62
2018-07-13T06:41:28.276Z,18.65
2018-07-13T06:42:28.227Z,18.76
2018-07-13T06:43:28.176Z,18.83
2018-07-13T06:44:28.126Z,18.91
2018-07-13T06:45:28.076Z,18.97
2018-07-13T06:46:28.027Z,18.92
2018-07-13T06:47:27.977Z,18.95
2018-07-13T06:48:27.927Z,18.97
2018-07-13T06:49:27.878Z,19.01
2018-07-13T06:50:27.864Z,19.05
2018-07-13T06:51:27.897Z,19.15
2018-07-13T06:52:27.729Z,19.28
2018-07-13T06:53:27.676Z,19.28
2018-07-13T06:54:27.627Z,19.36
2018-07-13T06:55:27.578Z,19.39
2018-07-13T06:56:27.526Z,19.39
2018-07-13T06:57:27.478Z,19.50
2018-07-13T06:58:27.429Z,19.54
2018-07-13T06:59:27.378Z,19.54
2018-07-13T07:00:27.330Z,19.57
2018-07-13T07:01:27.279Z,19.53
2018-07-13T07:02:27.230Z,19.57
2018-07-13T07:03:27.181Z,19.61
2018-07-13T07:04:27.132Z,19.72
2018-07-13T07:05:27.083Z,19.70
2018-07-13T07:06:27.032Z,19.86
2018-07-13T07:07:26.984Z,19.95
2018-07-13T07:08:26.934Z,20.03
2018-07-13T07:09:26.885Z,20.16
2018-07-13T07:10:26.835Z,20.28
2018-07-13T07:11:26.787Z,20.35
2018-07-13T07:12:26.738Z,20.38
2018-07-13T07:13:26.688Z,20.27
2018-07-13T07:14:26.639Z,20.42
2018-07-13T07:15:26.590Z,20.39
2018-07-13T07:16:26.542Z,20.39
2018-07-13T07:17:26.492Z,20.49
2018-07-13T07:18:26.443Z,20.50
2018-07-13T07:19:26.394Z,20.58
2018-07-13T07:20:26.346Z,20.62
2018-07-13T07:21:26.297Z,20.61
2018-07-13T07:22:26.247Z,20.65
2018-07-13T07:23:26.199Z,20.72
2018-07-13T07:24:26.193Z,20.71
2018-07-13T07:25:26.101Z,20.77
2018-07-13T07:26:26.055Z,20.83
2018-07-13T07:27:26.006Z,20.83
2018-07-13T07:28:25.955Z,20.89
2018-07-13T07:29:25.906Z,20.99
2018-07-13T07:30:25.857Z,20.90
2018-07-13T07:31:25.809Z,20.99
2018-07-13T07:32:25.760Z,21.02
2018-07-13T07:33:25.711Z,21.11
2018-07-13T07:34:25.736Z,21.21
2018-07-13T07:35:25.615Z,21.19
2018-07-13T07:36:25.567Z,21.39
2018-07-13T07:37:25.519Z,21.42
2018-07-13T07:38:25.509Z,21.41
2018-07-13T07:39:25.423Z,21.63
2018-07-13T07:40:25.373Z,21.60
2018-07-13T07:41:25.326Z,21.61
2018-07-13T07:42:25.277Z,21.69
2018-07-13T07:43:25.230Z,21.75
2018-07-13T07:44:25.182Z,21.83
2018-07-13T07:45:25.134Z,21.85
2018-07-13T07:46:25.090Z,21.91
2018-07-13T07:47:25.038Z,21.94
2018-07-13T07:48:24.992Z,22.01
2018-07-13T07:49:24.950Z,22.06
2018-07-13T07:50:24.895Z,22.13
2018-07-13T07:51:24.848Z,22.27
2018-07-13T07:52:24.801Z,22.23
2018-07-13T07:53:24.752Z,22.23
2018-07-13T07:54:24.705Z,22.16
2018-07-13T07:55:24.658Z,22.29
2018-07-13T07:56:24.610Z,22.35
2018-07-13T07:57:24.575Z,22.41
2018-07-13T07:58:24.514Z,22.38
2018-07-13T07:59:24.466Z,22.43
2018-07-13T08:00:24.418Z,22.54
2018-07-13T08:01:24.372Z,22.50
2018-07-13T08:02:24.324Z,22.56
2018-07-13T08:03:24.276Z,22.60
2018-07-13T08:04:24.233Z,22.57
2018-07-13T08:05:24.182Z,22.71
2018-07-13T08:06:24.240Z,22.74
2018-07-13T08:07:24.133Z,22.86
2018-07-13T08:08:24.040Z,22.93
2018-07-13T08:09:23.991Z,22.94
2018-07-13T08:10:23.945Z,23.02
2018-07-13T08:11:23.899Z,23.14
2018-07-13T08:12:23.851Z,23.08
2018-07-13T08:13:23.807Z,23.26
2018-07-13T08:14:23.820Z,23.38
2018-07-13T08:15:23.709Z,23.32
2018-07-13T08:16:23.775Z,23.32
2018-07-13T08:17:23.615Z,23.38
2018-07-13T08:18:23.569Z,23.47
2018-07-13T08:19:23.522Z,23.53
2018-07-13T08:20:23.474Z,23.60
2018-07-13T08:21:23.428Z,23.62
2018-07-13T08:22:23.380Z,23.64
2018-07-13T08:23:23.335Z,23.62
2018-07-13T08:24:23.288Z,23.83
2018-07-13T08:25:23.240Z,23.90
2018-07-13T08:26:23.194Z,23.97
2018-07-13T08:27:23.148Z,24.10
2018-07-13T08:28:23.139Z,24.08
2018-07-13T08:29:23.052Z,24.05
2018-07-13T08:30:23.009Z,24.01
2018-07-13T08:31:22.961Z,24.02
2018-07-13T08:32:22.915Z,24.05
2018-07-13T08:33:22.868Z,24.14
2018-07-13T08:34:22.822Z,24.13
2018-07-13T08:35:22.775Z,24.10
2018-07-13T08:36:22.731Z,24.08
2018-07-13T08:37:22.689Z,24.07
2018-07-13T08:38:22.635Z,24.07
2018-07-13T08:39:22.590Z,24.23
2018-07-13T08:40:22.543Z,24.10
2018-07-13T08:41:22.498Z,24.20
2018-07-13T08:42:22.454Z,24.27
2018-07-13T08:43:22.404Z,24.27
2018-07-13T08:44:22.357Z,24.31
2018-07-13T08:45:22.312Z,24.38
2018-07-13T08:46:22.272Z,24.38
2018-07-13T08:47:22.220Z,24.45
2018-07-13T08:48:22.174Z,24.50
2018-07-13T08:49:22.127Z,24.50
2018-07-13T08:50:22.095Z,24.57
2018-07-13T08:51:22.059Z,24.54
2018-07-13T08:52:21.991Z,24.53
2018-07-13T08:53:21.944Z,24.56
2018-07-13T08:54:21.898Z,24.75
2018-07-13T08:55:21.851Z,24.79
2018-07-13T08:56:21.844Z,24.85
2018-07-13T08:57:21.764Z,24.98
2018-07-13T08:58:21.815Z,24.95
2018-07-13T08:59:21.669Z,24.98
2018-07-13T09:00:21.626Z,25.02
2018-07-13T09:01:21.578Z,25.20
2018-07-13T09:02:21.532Z,25.12
2018-07-13T09:03:21.497Z,25.01
2018-07-13T09:04:21.477Z,25.02
2018-07-13T09:05:21.396Z,24.90
2018-07-13T09:06:21.414Z,24.95
2018-07-13T09:07:21.306Z,25.07
2018-07-13T09:08:21.259Z,25.12
2018-07-13T09:09:21.216Z,25.16
2018-07-13T09:10:21.172Z,25.35
2018-07-13T09:11:21.124Z,25.30
2018-07-13T09:12:21.079Z,25.31
2018-07-13T09:13:21.035Z,25.47
2018-07-13T09:14:20.988Z,25.44
2018-07-13T09:15:20.947Z,25.32
2018-07-13T09:16:20.899Z,25.32
2018-07-13T09:17:20.855Z,25.24
2018-07-13T09:18:20.896Z,25.32
2018-07-13T09:19:20.763Z,25.38
2018-07-13T09:20:20.720Z,25.43
2018-07-13T09:21:20.678Z,25.47
2018-07-13T09:22:20.627Z,25.57
2018-07-13T09:23:20.581Z,25.43
2018-07-13T09:24:20.537Z,25.65
2018-07-13T09:25:20.491Z,25.71
2018-07-13T09:26:20.447Z,25.93
2018-07-13T09:27:20.405Z,25.99
2018-07-13T09:28:20.356Z,25.91
2018-07-13T09:29:20.313Z,25.87
2018-07-13T09:30:20.268Z,25.68
2018-07-13T09:31:20.256Z,25.62
2018-07-13T09:32:20.176Z,25.89
2018-07-13T09:33:20.135Z,25.93
2018-07-13T09:34:20.100Z,25.91
2018-07-13T09:35:20.047Z,25.97
2018-07-13T09:36:19.998Z,25.93
2018-07-13T09:37:19.952Z,26.08
2018-07-13T09:38:20.021Z,26.06
2018-07-13T09:39:19.864Z,26.08
2018-07-13T09:40:19.821Z,26.04
2018-07-13T09:41:19.774Z,26.09
2018-07-13T09:42:19.729Z,26.05
2018-07-13T09:43:19.686Z,26.05
2018-07-13T09:44:19.639Z,25.93
2018-07-13T09:45:19.598Z,25.91
2018-07-13T09:46:19.554Z,25.99
2018-07-13T09:47:19.507Z,26.06
2018-07-13T09:48:19.462Z,26.25
2018-07-13T09:49:19.417Z,26.15
2018-07-13T09:50:19.372Z,26.04
2018-07-13T09:51:19.328Z,26.18
2018-07-13T09:52:19.284Z,26.28
2018-07-13T09:53:19.237Z,26.31
2018-07-13T09:54:19.207Z,26.32
2018-07-13T09:55:19.149Z,26.21
2018-07-13T09:56:19.107Z,26.21
2018-07-13T09:57:19.061Z,26.31
2018-07-13T09:58:19.017Z,26.28
2018-07-13T09:59:18.972Z,26.36
2018-07-13T10:00:18.928Z,26.54
2018-07-13T10:01:18.885Z,26.58
2018-07-13T10:02:18.841Z,26.52
2018-07-13T10:03:18.799Z,26.57
2018-07-13T10:04:18.754Z,26.61
2018-07-13T10:05:18.709Z,26.69
2018-07-13T10:06:18.664Z,26.92
2018-07-13T10:07:18.619Z,27.06
2018-07-13T10:08:18.576Z,27.04
2018-07-13T10:09:18.535Z,27.01
2018-07-13T10:10:18.488Z,26.80
2018-07-13T10:11:18.447Z,26.68
2018-07-13T10:12:18.402Z,26.57
2018-07-13T10:13:18.381Z,26.58
2018-07-13T10:14:18.314Z,26.58
2018-07-13T10:15:18.269Z,26.57
2018-07-13T10:16:18.224Z,26.69
2018-07-13T10:17:18.179Z,26.91
2018-07-13T10:18:18.136Z,26.87
2018-07-13T10:19:18.095Z,26.99
2018-07-13T10:20:18.051Z,26.80
2018-07-13T10:21:18.008Z,26.67
2018-07-13T10:22:17.964Z,26.54
2018-07-13T10:23:17.917Z,26.43
2018-07-13T10:24:17.875Z,26.43
2018-07-13T10:25:17.857Z,26.54
2018-07-13T10:26:17.792Z,26.64
2018-07-13T10:27:17.742Z,26.72
2018-07-13T10:28:17.703Z,26.76
2018-07-13T10:29:17.690Z,26.94
2018-07-13T10:30:17.611Z,26.96
2018-07-13T10:31:17.567Z,27.14
2018-07-13T10:32:17.523Z,27.20
2018-07-13T10:33:17.484Z,27.11
2018-07-13T10:34:17.436Z,27.20
2018-07-13T10:35:17.403Z,27.24
2018-07-13T10:36:17.350Z,27.32
2018-07-13T10:37:17.305Z,27.32
2018-07-13T10:38:17.263Z,27.16
2018-07-13T10:39:17.221Z,27.23
2018-07-13T10:40:17.177Z,27.21
2018-07-13T10:41:17.132Z,27.35
2018-07-13T10:42:17.090Z,27.41
2018-07-13T10:43:17.046Z,27.51
2018-07-13T10:44:17.005Z,27.43
2018-07-13T10:45:16.959Z,27.33
2018-07-13T10:46:16.920Z,27.43
2018-07-13T10:47:16.873Z,27.35
2018-07-13T10:48:16.830Z,27.48
2018-07-13T10:49:16.850Z,27.50
2018-07-13T10:50:16.746Z,27.67
2018-07-13T10:51:16.701Z,27.74
2018-07-13T10:52:16.658Z,27.95
2018-07-13T10:53:16.614Z,27.99
2018-07-13T10:54:16.574Z,27.95
2018-07-13T10:55:16.533Z,27.98
2018-07-13T10:56:16.488Z,27.99
2018-07-13T10:57:16.444Z,27.85
2018-07-13T10:58:16.400Z,27.91
2018-07-13T10:59:16.362Z,27.88
2018-07-13T11:00:16.322Z,27.98
2018-07-13T11:01:16.271Z,28.01
2018-07-13T11:02:16.231Z,28.09
2018-07-13T11:03:16.186Z,28.01
2018-07-13T11:04:16.144Z,27.99
2018-07-13T11:05:16.101Z,28.04
2018-07-13T11:06:16.058Z,27.80
2018-07-13T11:07:16.018Z,27.82
2018-07-13T11:08:15.973Z,27.88
2018-07-13T11:09:15.930Z,27.91
2018-07-13T11:10:15.887Z,28.07
2018-07-13T11:11:15.844Z,27.99
2018-07-13T11:12:15.802Z,27.99
2018-07-13T11:13:15.761Z,28.06
2018-07-13T11:14:15.717Z,28.04
2018-07-13T11:15:15.675Z,28.06
2018-07-13T11:16:15.631Z,27.94
2018-07-13T11:17:15.587Z,27.89
2018-07-13T11:18:15.549Z,27.86
2018-07-13T11:19:15.506Z,27.73
2018-07-13T11:20:15.462Z,27.61
2018-07-13T11:21:15.419Z,27.73
2018-07-13T11:22:15.374Z,27.88
2018-07-13T11:23:15.334Z,27.84
2018-07-13T11:24:15.295Z,27.69
2018-07-13T11:25:15.249Z,27.80
2018-07-13T11:26:15.206Z,27.91
2018-07-13T11:27:15.164Z,28.14
2018-07-13T11:28:15.121Z,28.10
2018-07-13T11:29:15.084Z,27.99
2018-07-13T11:30:15.086Z,27.96
2018-07-13T11:31:14.995Z,28.01
2018-07-13T11:32:14.951Z,28.13
2018-07-13T11:33:14.908Z,28.23
2018-07-13T11:34:14.879Z,28.31
2018-07-13T11:35:14.825Z,28.25
2018-07-13T11:36:14.826Z,28.46
2018-07-13T11:37:14.845Z,28.41
2018-07-13T11:38:14.700Z,28.62
2018-07-13T11:39:14.656Z,28.44
2018-07-13T11:40:14.614Z,28.35
2018-07-13T11:41:14.569Z,28.33
2018-07-13T11:42:14.526Z,28.01
2018-07-13T11:43:14.485Z,28.14
2018-07-13T11:44:15.317Z,28.35
2018-07-13T11:45:14.403Z,28.38
2018-07-13T11:46:14.400Z,28.56
2018-07-13T11:47:14.316Z,28.69
2018-07-13T11:48:14.275Z,28.59
2018-07-13T11:49:14.235Z,28.46
2018-07-13T11:50:14.188Z,28.26
2018-07-13T11:51:14.146Z,28.11
2018-07-13T11:52:14.155Z,27.99
2018-07-13T11:53:14.063Z,27.94
2018-07-13T11:54:14.021Z,27.99
2018-07-13T11:55:13.978Z,27.99
2018-07-13T11:56:13.943Z,27.89
2018-07-13T11:57:13.893Z,27.80
2018-07-13T11:58:13.851Z,27.82
2018-07-13T11:59:13.811Z,27.77
2018-07-13T12:00:13.768Z,27.85
2018-07-13T12:01:13.727Z,27.85
2018-07-13T12:02:13.682Z,27.86
2018-07-13T12:03:13.640Z,27.92
2018-07-13T12:04:13.599Z,27.84
2018-07-13T12:05:13.556Z,27.98
2018-07-13T12:06:13.513Z,28.03
2018-07-13T12:07:13.471Z,28.09
2018-07-13T12:08:13.431Z,28.13
2018-07-13T12:09:13.391Z,28.21
2018-07-13T12:10:13.346Z,28.21
2018-07-13T12:11:13.302Z,28.35
2018-07-13T12:12:13.261Z,28.35
2018-07-13T12:13:13.217Z,28.56
2018-07-13T12:14:13.176Z,28.63
2018-07-13T12:15:13.133Z,28.68
2018-07-13T12:16:13.093Z,28.70
2018-07-13T12:17:13.048Z,28.80
2018-07-13T12:18:13.012Z,28.80
2018-07-13T12:19:12.964Z,28.62
2018-07-13T12:20:12.922Z,28.62
2018-07-13T12:21:12.880Z,28.59
2018-07-13T12:22:12.845Z,28.46
2018-07-13T12:23:12.848Z,28.17
2018-07-13T12:24:12.754Z,27.91
2018-07-13T12:25:12.710Z,27.89
2018-07-13T12:26:12.698Z,27.80
2018-07-13T12:27:12.627Z,27.80
2018-07-13T12:28:12.586Z,27.85
2018-07-13T12:29:12.540Z,27.82
2018-07-13T12:30:12.507Z,27.85
2018-07-13T12:31:12.459Z,27.95
2018-07-13T12:32:12.415Z,28.10
2018-07-13T12:33:12.372Z,28.35
2018-07-13T12:34:12.329Z,28.56
2018-07-13T12:35:12.287Z,28.84
2018-07-13T12:36:12.246Z,28.95
2018-07-13T12:37:12.202Z,29.08
2018-07-13T12:38:12.165Z,29.28
2018-07-13T12:39:12.118Z,29.13
2018-07-13T12:40:12.077Z,28.96
2018-07-13T12:41:12.033Z,28.91
2018-07-13T12:42:11.992Z,28.80
2018-07-13T12:43:11.953Z,28.80
2018-07-13T12:44:11.909Z,28.77
2018-07-13T12:45:11.867Z,28.66
2018-07-13T12:46:11.843Z,28.75
2018-07-13T12:47:11.782Z,28.81
2018-07-13T12:48:11.740Z,28.95
2018-07-13T12:49:11.777Z,28.93
2018-07-13T12:50:11.655Z,28.75
2018-07-13T12:51:11.617Z,28.58
2018-07-13T12:52:11.572Z,28.33